Time;durP1;ratioP1;P1;durP2;ratioP2;P2;SDS_P1;SDS_P2;PMS_P1;PMS_P2;Temp;Humidity;BMP_temperature;BMP_pressure;BME280_temperature;BME280_humidity;BME280_pressure;Samples;Min_cycle;Max_cycle;Signal;HPM_P1;HPM_P2
2023/01/20 00:00:18;;;;;;;12.77;10.45;;;5.80;99.90;;;;;;5106142;28;20536;-81
2023/01/20 00:02:45;;;;;;;14.63;11.43;;;5.80;99.90;;;;;;5108841;28;20230;-78
2023/01/20 00:05:13;;;;;;;15.00;11.65;;;5.80;99.90;;;;;;5094033;28;20254;-77
2023/01/20 00:07:40;;;;;;;12.80;10.38;;;5.80;99.90;;;;;;5093059;28;20219;-76
2023/01/20 00:10:08;;;;;;;15.10;11.27;;;5.80;99.90;;;;;;5101986;28;20228;-77
2023/01/20 00:12:35;;;;;;;17.20;12.70;;;5.80;99.90;;;;;;5095437;28;20223;-79
2023/01/20 00:15:03;;;;;;;14.63;10.82;;;5.80;99.90;;;;;;5098173;28;20230;-76
2023/01/20 00:17:31;;;;;;;12.27;9.68;;;5.80;99.90;;;;;;5112139;28;20211;-80
2023/01/20 00:19:58;;;;;;;13.30;11.60;;;5.80;99.90;;;;;;5103859;28;20227;-77
2023/01/20 00:22:25;;;;;;;16.73;11.27;;;5.70;99.90;;;;;;5110274;28;20215;-80
2023/01/20 00:24:52;;;;;;;15.85;11.10;;;5.70;99.90;;;;;;5121344;28;20233;-77
2023/01/20 00:27:19;;;;;;;15.05;10.75;;;5.70;99.90;;;;;;5102101;28;20243;-81
2023/01/20 00:29:46;;;;;;;13.60;11.38;;;5.70;99.90;;;;;;5096890;28;20254;-77
2023/01/20 00:32:16;;;;;;;16.27;10.38;;;5.60;99.90;;;;;;5110709;28;20219;-77
2023/01/20 00:34:44;;;;;;;15.00;10.23;;;5.60;99.90;;;;;;5095646;28;20239;-80
2023/01/20 00:37:11;;;;;;;16.23;11.63;;;5.60;99.90;;;;;;5106324;28;20297;-81
2023/01/20 00:39:38;;;;;;;14.27;10.35;;;5.60;99.90;;;;;;5114510;28;20284;-77
2023/01/20 00:42:05;;;;;;;13.70;10.57;;;5.60;99.90;;;;;;5121617;28;20212;-77
2023/01/20 00:44:32;;;;;;;11.68;9.27;;;5.60;99.90;;;;;;5116816;28;20296;-77
2023/01/20 00:46:59;;;;;;;12.02;10.15;;;5.60;99.90;;;;;;5118037;28;20302;-77
2023/01/20 00:49:31;;;;;;;14.35;10.18;;;5.60;99.90;;;;;;5128761;28;20222;-76
2023/01/20 00:52:00;;;;;;;15.20;11.02;;;5.60;99.90;;;;;;5108925;28;20212;-80
2023/01/20 00:54:27;;;;;;;16.67;11.15;;;5.60;99.90;;;;;;5124321;28;20244;-81
2023/01/20 00:56:54;;;;;;;14.68;10.50;;;5.60;99.90;;;;;;5119260;27;20238;-80
2023/01/20 00:59:22;;;;;;;13.85;9.80;;;5.60;99.90;;;;;;5110724;28;20234;-79
2023/01/20 01:01:49;;;;;;;15.23;10.90;;;5.60;99.90;;;;;;5111358;28;20261;-78
2023/01/20 01:04:17;;;;;;;14.10;10.43;;;5.60;99.90;;;;;;5123665;27;20219;-78
2023/01/20 01:06:45;;;;;;;12.80;10.43;;;5.60;99.90;;;;;;5108266;28;20232;-77
2023/01/20 01:09:14;;;;;;;14.75;11.07;;;5.50;99.90;;;;;;5117903;28;20253;-78
2023/01/20 01:11:41;;;;;;;17.48;11.30;;;5.50;99.90;;;;;;5114238;28;20299;-80
2023/01/20 01:14:09;;;;;;;13.35;9.02;;;5.50;99.90;;;;;;5109221;28;20694;-80
2023/01/20 01:16:36;;;;;;;15.13;10.45;;;5.50;99.90;;;;;;5123120;28;20222;-80
2023/01/20 01:19:03;;;;;;;16.75;11.20;;;5.50;99.90;;;;;;5109483;27;20219;-78
2023/01/20 01:21:31;;;;;;;12.32;8.82;;;5.50;99.90;;;;;;5114954;28;20227;-77
2023/01/20 01:23:58;;;;;;;15.00;10.00;;;5.50;99.90;;;;;;5114503;28;20223;-79
2023/01/20 01:26:26;;;;;;;15.63;10.05;;;5.50;99.90;;;;;;5109477;28;20767;-80
2023/01/20 01:28:54;;;;;;;16.50;9.68;;;5.50;99.90;;;;;;5105585;28;20227;-80
2023/01/20 01:31:24;;;;;;;21.50;10.15;;;5.50;99.90;;;;;;5115238;28;20220;-79
2023/01/20 01:33:51;;;;;;;13.38;9.85;;;5.50;99.90;;;;;;5116419;28;20257;-77
2023/01/20 01:36:18;;;;;;;16.90;10.27;;;5.40;99.90;;;;;;5107918;28;20230;-79
2023/01/20 01:38:49;;;;;;;16.30;10.30;;;5.50;99.90;;;;;;5112132;28;20688;-78
2023/01/20 01:41:17;;;;;;;19.08;11.07;;;5.50;99.90;;;;;;5118915;28;20246;-76
2023/01/20 01:46:53;;;;;;;13.00;10.40;;;5.50;99.90;;;;;;4996572;28;20527;-78
2023/01/20 01:49:24;;;;;;;13.57;8.75;;;5.40;99.90;;;;;;4973506;28;20242;-77
2023/01/20 01:51:55;;;;;;;12.65;8.60;;;5.40;99.90;;;;;;4944450;28;20223;-78
2023/01/20 01:54:26;;;;;;;12.18;9.20;;;5.40;99.90;;;;;;4973457;28;20223;-77
2023/01/20 01:56:55;;;;;;;11.63;9.05;;;5.40;99.90;;;;;;4965062;28;20250;-79
2023/01/20 01:59:24;;;;;;;16.15;8.57;;;5.40;99.90;;;;;;4967113;28;20228;-76
2023/01/20 02:01:56;;;;;;;14.75;9.00;;;5.40;99.90;;;;;;4971039;28;20227;-77
2023/01/20 02:04:26;;;;;;;13.77;9.45;;;5.40;99.90;;;;;;4962499;28;20238;-80
2023/01/20 02:07:03;;;;;;;12.70;9.90;;;5.40;99.90;;;;;;4959141;28;20228;-77
2023/01/20 02:09:32;;;;;;;12.15;7.78;;;5.30;99.90;;;;;;4957909;28;20286;-80
2023/01/20 02:12:03;;;;;;;19.30;10.30;;;5.30;99.90;;;;;;4959001;28;20227;-80
2023/01/20 02:14:34;;;;;;;12.77;9.07;;;5.30;99.90;;;;;;4955104;28;20717;-78
2023/01/20 02:17:12;;;;;;;12.85;10.60;;;5.30;99.90;;;;;;4963193;28;20219;-81
2023/01/20 02:20:24;;;;;;;12.65;9.38;;;5.30;99.90;;;;;;4955049;28;20247;-77
2023/01/20 02:23:00;;;;;;;15.52;10.65;;;5.30;99.90;;;;;;4978823;28;20601;-77
2023/01/20 02:25:58;;;;;;;13.40;9.35;;;5.30;99.90;;;;;;4958069;28;20620;-77
2023/01/20 02:28:50;;;;;;;13.95;9.88;;;5.30;99.90;;;;;;4956718;28;20655;-80
2023/01/20 02:32:03;;;;;;;12.38;10.13;;;5.30;99.90;;;;;;4951851;28;20231;-80
2023/01/20 02:34:36;;;;;;;12.02;9.68;;;5.30;99.90;;;;;;4954618;28;20232;-77
2023/01/20 02:37:14;;;;;;;10.35;8.70;;;5.30;99.90;;;;;;4954626;28;20224;-80
2023/01/20 02:39:53;;;;;;;15.82;10.07;;;5.30;99.90;;;;;;4948579;28;20688;-77
2023/01/20 02:42:25;;;;;;;13.07;9.15;;;5.30;99.90;;;;;;4950171;28;20402;-77
2023/01/20 02:44:58;;;;;;;14.13;10.20;;;5.30;99.90;;;;;;4958722;28;20235;-79
2023/01/20 02:47:33;;;;;;;13.93;10.00;;;5.30;99.90;;;;;;4952420;28;20235;-80
2023/01/20 02:50:04;;;;;;;16.27;9.60;;;5.30;99.90;;;;;;4959005;28;20297;-80
2023/01/20 02:52:35;;;;;;;11.18;9.60;;;5.20;99.90;;;;;;4960882;28;20228;-77
2023/01/20 02:55:09;;;;;;;12.57;9.48;;;5.20;99.90;;;;;;4959722;28;20238;-77
2023/01/20 02:57:42;;;;;;;16.23;11.07;;;5.20;99.90;;;;;;4943762;28;20566;-80
2023/01/20 03:00:14;;;;;;;13.43;10.63;;;5.20;99.90;;;;;;4945352;28;20228;-80
2023/01/20 03:02:46;;;;;;;12.00;7.90;;;5.20;99.90;;;;;;4947819;28;20313;-80
2023/01/20 03:05:20;;;;;;;10.32;9.35;;;5.30;99.90;;;;;;4948746;28;20235;-80
2023/01/20 03:07:49;;;;;;;13.98;10.05;;;5.20;99.90;;;;;;4934875;28;20235;-77
2023/01/20 03:10:21;;;;;;;19.63;10.90;;;5.30;99.90;;;;;;4942806;28;20232;-80
2023/01/20 03:12:55;;;;;;;16.38;12.15;;;5.30;99.90;;;;;;4944277;28;20228;-77
2023/01/20 03:15:25;;;;;;;16.15;8.88;;;5.30;99.90;;;;;;4948704;28;20227;-80
2023/01/20 03:17:54;;;;;;;19.80;11.88;;;5.30;99.90;;;;;;4946383;28;20235;-79
2023/01/20 03:20:21;;;;;;;12.25;10.07;;;5.30;99.90;;;;;;4940959;28;20220;-77
2023/01/20 03:22:49;;;;;;;17.88;11.63;;;5.30;99.90;;;;;;4947350;28;20224;-80
2023/01/20 03:25:18;;;;;;;13.82;10.55;;;5.30;99.90;;;;;;4943117;28;20228;-81
2023/01/20 03:27:45;;;;;;;15.38;11.02;;;5.30;99.90;;;;;;4935984;28;20229;-80
2023/01/20 03:30:13;;;;;;;19.85;11.77;;;5.30;99.90;;;;;;4948080;28;20233;-80
2023/01/20 03:32:42;;;;;;;17.10;12.43;;;5.30;99.90;;;;;;4947560;28;20280;-78
2023/01/20 03:35:12;;;;;;;14.43;10.35;;;5.30;99.90;;;;;;4941401;28;20258;-77
2023/01/20 03:37:39;;;;;;;15.38;11.20;;;5.30;99.90;;;;;;4941211;28;20256;-77
2023/01/20 03:40:08;;;;;;;14.90;10.13;;;5.30;99.90;;;;;;4941536;28;20337;-77
2023/01/20 03:42:43;;;;;;;16.30;11.55;;;5.30;99.90;;;;;;4941748;28;20239;-77
2023/01/20 03:45:17;;;;;;;17.08;11.18;;;5.30;99.90;;;;;;4947532;28;20267;-80
2023/01/20 03:47:55;;;;;;;18.58;12.75;;;5.30;99.90;;;;;;4948719;28;20240;-80
2023/01/20 03:50:33;;;;;;;13.43;11.02;;;5.20;99.90;;;;;;4942832;28;20231;-76
2023/01/20 03:53:06;;;;;;;15.57;12.57;;;5.30;99.90;;;;;;4940439;29;20233;-78
2023/01/20 03:55:38;;;;;;;18.85;12.90;;;5.20;99.90;;;;;;4946466;28;20279;-80
2023/01/20 03:58:09;;;;;;;13.32;11.45;;;5.30;99.90;;;;;;4941834;29;20255;-78
2023/01/20 04:00:40;;;;;;;14.15;11.90;;;5.30;99.90;;;;;;4942886;28;20247;-80
2023/01/20 04:03:09;;;;;;;13.00;11.48;;;5.20;99.90;;;;;;4950280;28;20288;-80
2023/01/20 04:05:40;;;;;;;22.30;14.75;;;5.20;99.90;;;;;;4950425;28;20236;-77
2023/01/20 04:08:10;;;;;;;20.73;14.40;;;5.20;99.90;;;;;;4955820;28;20308;-80
2023/01/20 04:10:41;;;;;;;20.30;14.38;;;5.20;99.90;;;;;;4960586;28;20569;-77
2023/01/20 04:13:10;;;;;;;18.60;13.00;;;5.20;99.90;;;;;;4956280;28;20522;-80
2023/01/20 04:15:40;;;;;;;19.30;15.30;;;5.20;99.90;;;;;;4947449;28;20235;-77
2023/01/20 04:18:12;;;;;;;17.60;13.57;;;5.20;99.90;;;;;;4952781;28;20277;-77
2023/01/20 04:20:41;;;;;;;22.25;13.95;;;5.20;99.90;;;;;;4945756;28;20302;-78
2023/01/20 04:23:15;;;;;;;20.08;15.55;;;5.20;99.90;;;;;;4953668;28;20651;-77
2023/01/20 04:25:43;;;;;;;17.27;13.73;;;5.10;99.90;;;;;;4957094;28;20232;-77
2023/01/20 04:28:10;;;;;;;16.73;13.27;;;5.10;99.90;;;;;;4952568;28;20693;-77
2023/01/20 04:30:37;;;;;;;21.48;13.50;;;5.10;99.90;;;;;;4950172;28;20286;-77
2023/01/20 04:33:04;;;;;;;21.30;14.95;;;5.10;99.90;;;;;;4957040;28;20248;-77
2023/01/20 04:35:31;;;;;;;22.25;15.13;;;5.10;99.90;;;;;;4964480;28;20225;-80
2023/01/20 04:38:00;;;;;;;25.00;16.17;;;5.10;99.90;;;;;;4960561;28;20232;-81
2023/01/20 04:40:28;;;;;;;24.05;15.68;;;5.10;99.90;;;;;;4959973;28;20231;-81
2023/01/20 04:42:55;;;;;;;28.63;18.73;;;5.00;99.90;;;;;;4968775;28;20228;-78
2023/01/20 04:45:22;;;;;;;26.50;17.92;;;5.00;99.90;;;;;;4970322;28;20232;-79
2023/01/20 04:47:49;;;;;;;24.40;17.77;;;5.00;99.90;;;;;;4970373;28;20253;-81
2023/01/20 04:50:17;;;;;;;18.95;14.70;;;4.90;99.90;;;;;;4966686;28;20224;-81
2023/01/20 04:52:44;;;;;;;24.40;17.90;;;5.00;99.90;;;;;;4957821;28;20228;-81
2023/01/20 04:55:13;;;;;;;24.73;16.70;;;5.00;99.90;;;;;;4957533;28;20228;-81
2023/01/20 04:57:40;;;;;;;25.33;17.45;;;5.00;99.90;;;;;;4956338;28;20228;-78
2023/01/20 05:00:08;;;;;;;20.20;15.48;;;5.00;99.90;;;;;;4955310;28;20232;-78
2023/01/20 05:02:35;;;;;;;23.05;14.88;;;5.00;99.90;;;;;;4956056;28;20601;-78
2023/01/20 05:05:02;;;;;;;23.70;16.38;;;5.00;99.90;;;;;;4955474;28;20255;-78
2023/01/20 05:07:29;;;;;;;23.20;15.55;;;5.00;99.90;;;;;;4955312;28;20228;-78
2023/01/20 05:09:56;;;;;;;28.92;15.82;;;5.00;99.90;;;;;;4954801;28;20232;-80
2023/01/20 05:12:26;;;;;;;24.08;17.50;;;5.00;99.90;;;;;;4956144;28;20678;-78
2023/01/20 05:14:57;;;;;;;22.27;15.50;;;5.00;99.90;;;;;;4956979;28;20228;-79
2023/01/20 05:17:24;;;;;;;31.70;17.38;;;5.00;99.90;;;;;;4954470;28;20236;-80
2023/01/20 05:19:54;;;;;;;20.05;15.90;;;5.00;99.90;;;;;;4955197;28;20267;-81
2023/01/20 05:22:22;;;;;;;23.92;15.63;;;5.00;99.90;;;;;;4956899;28;20231;-79
2023/01/20 05:24:49;;;;;;;26.50;15.80;;;5.00;99.90;;;;;;4962708;28;20682;-78
2023/01/20 05:27:20;;;;;;;25.08;15.60;;;5.00;99.90;;;;;;4959974;28;20232;-81
2023/01/20 05:30:13;;;;;;;23.05;15.70;;;4.90;99.90;;;;;;4964459;28;20232;-81
2023/01/20 05:33:03;;;;;;;22.13;15.65;;;4.90;99.90;;;;;;4962032;28;20224;-79
2023/01/20 05:35:34;;;;;;;24.65;18.60;;;5.00;99.90;;;;;;4964212;28;20232;-80
2023/01/20 05:38:01;;;;;;;28.83;17.83;;;4.90;99.90;;;;;;4960653;28;20255;-80
2023/01/20 05:40:28;;;;;;;27.23;18.45;;;4.90;99.90;;;;;;4964840;28;20234;-80
2023/01/20 05:42:59;;;;;;;28.92;17.08;;;4.90;99.90;;;;;;4967020;28;20282;-79
2023/01/20 05:45:28;;;;;;;24.30;16.42;;;4.90;99.90;;;;;;4966868;28;20246;-79
2023/01/20 05:48:16;;;;;;;24.83;16.73;;;4.80;99.90;;;;;;4974294;28;20227;-80
2023/01/20 05:50:44;;;;;;;21.38;15.18;;;4.80;99.90;;;;;;4968814;28;20239;-78
2023/01/20 05:53:11;;;;;;;27.23;16.33;;;4.80;99.90;;;;;;4967333;28;20219;-80
2023/01/20 05:55:38;;;;;;;24.60;16.67;;;4.80;99.90;;;;;;4965038;28;20235;-80
2023/01/20 05:58:06;;;;;;;24.73;16.75;;;4.70;99.90;;;;;;4965837;28;20228;-79
2023/01/20 06:00:37;;;;;;;29.63;17.77;;;4.70;99.90;;;;;;4961039;28;20236;-79
2023/01/20 06:03:05;;;;;;;28.20;19.38;;;4.70;99.90;;;;;;4957853;28;20244;-80
2023/01/20 06:05:33;;;;;;;28.10;17.02;;;4.70;99.90;;;;;;4968721;28;20239;-78
2023/01/20 06:08:06;;;;;;;24.70;17.10;;;4.70;99.90;;;;;;4960300;28;20228;-76
2023/01/20 06:10:33;;;;;;;26.02;16.13;;;4.70;99.90;;;;;;4968033;28;20239;-77
2023/01/20 06:13:00;;;;;;;25.48;18.65;;;4.70;99.90;;;;;;4962790;28;20315;-77
2023/01/20 06:15:28;;;;;;;27.25;17.33;;;4.70;99.90;;;;;;4959057;28;20228;-78
2023/01/20 06:17:57;;;;;;;27.20;19.05;;;4.70;99.90;;;;;;4957227;28;20220;-77
2023/01/20 06:20:24;;;;;;;23.10;17.50;;;4.60;99.90;;;;;;4954531;28;20290;-77
2023/01/20 06:22:55;;;;;;;33.40;19.35;;;4.60;99.90;;;;;;4954489;28;20232;-77
2023/01/20 06:25:22;;;;;;;29.67;20.20;;;4.60;99.90;;;;;;4951244;28;20322;-80
2023/01/20 06:30:34;;;;;;;30.50;19.45;;;4.50;99.90;;;;;;4960183;28;20235;-77
2023/01/20 06:33:03;;;;;;;25.67;19.13;;;4.50;99.90;;;;;;4958024;28;20307;-77
2023/01/20 06:35:32;;;;;;;32.05;19.85;;;4.50;99.90;;;;;;4958442;28;20702;-77
2023/01/20 06:37:59;;;;;;;28.67;21.10;;;4.50;99.90;;;;;;4956224;28;20528;-77
2023/01/20 06:40:26;;;;;;;31.10;19.25;;;4.50;99.90;;;;;;4955935;28;20251;-77
2023/01/20 06:42:59;;;;;;;28.35;17.30;;;4.50;99.90;;;;;;4956829;28;20225;-77
2023/01/20 06:45:28;;;;;;;30.33;20.58;;;4.50;99.90;;;;;;4962411;28;20269;-77
2023/01/20 06:47:55;;;;;;;30.50;18.98;;;4.50;99.90;;;;;;4958271;28;20285;-79
2023/01/20 06:50:23;;;;;;;29.67;17.80;;;4.50;99.90;;;;;;4958578;28;20228;-80
2023/01/20 06:52:50;;;;;;;28.77;18.48;;;4.50;99.90;;;;;;4957663;28;20224;-80
2023/01/20 06:55:18;;;;;;;29.15;19.65;;;4.50;99.90;;;;;;4955886;28;20224;-77
2023/01/20 06:57:45;;;;;;;27.70;17.50;;;4.40;99.90;;;;;;4956284;28;20231;-78
2023/01/20 07:00:14;;;;;;;25.58;17.38;;;4.40;99.90;;;;;;4956537;28;20256;-77
2023/01/20 07:02:41;;;;;;;28.80;18.10;;;4.50;99.90;;;;;;4956412;28;20236;-80
2023/01/20 07:05:10;;;;;;;30.88;19.98;;;4.40;99.90;;;;;;4963014;28;20246;-81
2023/01/20 07:07:38;;;;;;;28.63;17.90;;;4.40;99.90;;;;;;4956876;28;20289;-81
2023/01/20 07:10:06;;;;;;;34.72;20.15;;;4.40;99.90;;;;;;4947429;28;20708;-81
2023/01/20 07:12:33;;;;;;;26.27;17.65;;;4.40;99.90;;;;;;4969916;28;20267;-79
2023/01/20 07:15:03;;;;;;;30.58;19.63;;;4.40;99.90;;;;;;4956538;28;20231;-80
2023/01/20 07:17:31;;;;;;;28.00;19.75;;;4.40;99.90;;;;;;4959101;28;20286;-81
2023/01/20 07:19:58;;;;;;;32.00;19.20;;;4.40;99.90;;;;;;4959311;28;20232;-78
2023/01/20 07:22:26;;;;;;;34.47;20.70;;;4.40;99.90;;;;;;4964905;28;20246;-76
2023/01/20 07:24:58;;;;;;;32.22;21.90;;;4.40;99.90;;;;;;4965841;28;20573;-77
2023/01/20 07:27:26;;;;;;;36.15;20.77;;;4.40;99.90;;;;;;4964316;28;20285;-77
2023/01/20 07:29:54;;;;;;;35.13;21.13;;;4.40;99.90;;;;;;4966971;28;20682;-77
2023/01/20 07:32:22;;;;;;;26.75;17.85;;;4.40;99.90;;;;;;4962864;28;20227;-82
2023/01/20 07:34:49;;;;;;;33.55;21.45;;;4.40;99.90;;;;;;4964476;28;20243;-77
2023/01/20 07:37:24;;;;;;;31.77;17.63;;;4.40;99.90;;;;;;4962667;28;20228;-81
2023/01/20 07:39:51;;;;;;;29.77;17.35;;;4.40;99.90;;;;;;4967257;28;20231;-79
2023/01/20 07:42:20;;;;;;;32.97;19.83;;;4.40;99.90;;;;;;4964491;28;20295;-78
2023/01/20 07:44:47;;;;;;;30.98;19.48;;;4.40;99.90;;;;;;4954814;28;20231;-81
2023/01/20 07:47:14;;;;;;;28.52;18.70;;;4.40;99.90;;;;;;4954307;28;20560;-80
2023/01/20 07:49:41;;;;;;;28.85;19.48;;;4.40;99.90;;;;;;4954675;28;20306;-78
2023/01/20 07:52:08;;;;;;;32.65;19.90;;;4.40;99.90;;;;;;4953742;28;20566;-78
2023/01/20 07:54:35;;;;;;;26.52;18.20;;;4.30;99.90;;;;;;4955073;28;20216;-80
2023/01/20 07:57:03;;;;;;;31.50;18.98;;;4.40;99.90;;;;;;4954589;28;20692;-80
2023/01/20 07:59:31;;;;;;;32.25;21.15;;;4.40;99.90;;;;;;4953521;28;20298;-77
2023/01/20 08:01:58;;;;;;;37.75;23.50;;;4.30;99.90;;;;;;4952975;28;20299;-77
2023/01/20 08:04:25;;;;;;;35.97;21.40;;;4.30;99.90;;;;;;4954154;28;20640;-80
2023/01/20 08:06:52;;;;;;;31.75;18.45;;;4.30;99.90;;;;;;4954975;28;20294;-80
2023/01/20 08:09:19;;;;;;;29.88;18.73;;;4.40;99.90;;;;;;4954107;28;20376;-80
2023/01/20 08:11:48;;;;;;;30.10;19.42;;;4.40;99.90;;;;;;4954289;28;20227;-80
2023/01/20 08:14:15;;;;;;;28.77;18.33;;;4.40;99.90;;;;;;4953787;28;20224;-79
2023/01/20 08:16:43;;;;;;;35.25;20.80;;;4.40;99.90;;;;;;4955009;28;20275;-80
2023/01/20 08:19:10;;;;;;;34.72;18.98;;;4.40;99.90;;;;;;4953592;28;20697;-78
2023/01/20 08:21:40;;;;;;;32.35;20.92;;;4.40;99.90;;;;;;4953552;28;20224;-77
2023/01/20 08:24:07;;;;;;;35.25;20.50;;;4.40;99.90;;;;;;4954571;28;20252;-76
2023/01/20 08:26:34;;;;;;;37.90;24.02;;;4.40;99.90;;;;;;4954536;28;20556;-76
2023/01/20 08:29:03;;;;;;;32.33;19.60;;;4.40;99.90;;;;;;4955566;28;20668;-79
2023/01/20 08:31:30;;;;;;;27.77;18.95;;;4.40;99.90;;;;;;4955945;28;20236;-80
2023/01/20 08:33:59;;;;;;;39.30;21.17;;;4.40;99.90;;;;;;4956549;28;20254;-80
2023/01/20 08:36:28;;;;;;;29.60;19.40;;;4.40;99.90;;;;;;4953618;28;20232;-81
2023/01/20 08:38:56;;;;;;;44.13;21.83;;;4.30;99.90;;;;;;4954130;28;20611;-80
2023/01/20 08:41:25;;;;;;;30.05;18.80;;;4.40;99.90;;;;;;4953680;28;20232;-81
2023/01/20 08:43:53;;;;;;;37.15;24.38;;;4.40;99.90;;;;;;4954400;28;20311;-80
2023/01/20 08:46:21;;;;;;;34.00;23.13;;;4.40;99.90;;;;;;4953502;28;20232;-80
2023/01/20 08:48:49;;;;;;;34.08;23.77;;;4.40;99.90;;;;;;4955063;28;20248;-78
2023/01/20 08:51:20;;;;;;;31.60;19.00;;;4.40;99.90;;;;;;4953863;28;20239;-78
2023/01/20 08:53:47;;;;;;;32.60;19.10;;;4.40;99.90;;;;;;4953984;28;20285;-78
2023/01/20 08:56:15;;;;;;;34.60;20.13;;;4.40;99.90;;;;;;4954013;28;20240;-78
2023/01/20 08:58:44;;;;;;;29.95;20.00;;;4.40;99.90;;;;;;4955329;28;20228;-80
2023/01/20 09:01:13;;;;;;;29.15;18.75;;;4.40;99.90;;;;;;4955229;28;20617;-77
2023/01/20 09:03:41;;;;;;;26.75;17.90;;;4.40;99.90;;;;;;4953170;28;20549;-80
2023/01/20 09:06:08;;;;;;;36.28;23.60;;;4.40;99.90;;;;;;4954732;28;20722;-80
2023/01/20 09:08:38;;;;;;;33.53;18.67;;;4.40;99.90;;;;;;4953212;28;20592;-78
2023/01/20 09:11:07;;;;;;;32.60;19.75;;;4.40;99.90;;;;;;4954522;28;20627;-78
2023/01/20 09:13:36;;;;;;;31.40;18.60;;;4.40;99.90;;;;;;4955273;28;20311;-78
2023/01/20 09:16:06;;;;;;;24.55;16.42;;;4.40;99.90;;;;;;4955767;28;20535;-78
2023/01/20 09:18:34;;;;;;;27.40;17.58;;;4.40;99.90;;;;;;4954709;28;20238;-78
2023/01/20 09:21:05;;;;;;;27.63;15.85;;;4.40;99.90;;;;;;4955743;28;20228;-78
2023/01/20 09:23:32;;;;;;;32.78;17.15;;;4.40;99.90;;;;;;4956273;28;20224;-77
2023/01/20 09:26:01;;;;;;;31.35;17.23;;;4.40;99.90;;;;;;4956768;28;20278;-76
2023/01/20 09:28:29;;;;;;;25.08;17.58;;;4.40;99.90;;;;;;4956334;28;20285;-77
2023/01/20 09:31:07;;;;;;;35.03;19.35;;;4.50;99.90;;;;;;4959191;28;20239;-79
2023/01/20 09:33:42;;;;;;;36.72;19.90;;;4.50;99.90;;;;;;4959647;28;20262;-77
2023/01/20 09:36:12;;;;;;;25.67;17.95;;;4.40;99.90;;;;;;4959683;28;20238;-79
2023/01/20 09:45:23;;;;;;;22.33;14.55;;;4.40;99.90;;;;;;4956144;28;20240;-80
2023/01/20 09:48:03;;;;;;;23.85;15.07;;;4.40;99.90;;;;;;4968407;28;20560;-77
2023/01/20 09:53:53;;;;;;;25.65;16.67;;;4.50;99.90;;;;;;4948065;28;20293;-77
2023/01/20 09:56:29;;;;;;;23.65;16.80;;;4.50;99.90;;;;;;4948592;28;20216;-78
2023/01/20 09:59:13;;;;;;;28.50;17.88;;;4.40;99.90;;;;;;4956063;28;20259;-81
2023/01/20 10:01:56;;;;;;;26.30;17.30;;;4.50;99.90;;;;;;4960469;28;20255;-80
2023/01/20 10:04:34;;;;;;;27.42;17.40;;;4.50;99.90;;;;;;4947201;28;20720;-80
2023/01/20 10:07:21;;;;;;;24.42;17.35;;;4.50;99.90;;;;;;4961739;28;20228;-80
2023/01/20 10:10:00;;;;;;;29.73;18.67;;;4.50;99.90;;;;;;4946361;28;20224;-78
2023/01/20 10:12:54;;;;;;;26.25;15.95;;;4.50;99.90;;;;;;4934955;29;20294;-77
2023/01/20 10:15:47;;;;;;;35.22;19.73;;;4.60;99.90;;;;;;4946809;28;20223;-78
2023/01/20 10:18:22;;;;;;;31.50;18.35;;;4.60;99.90;;;;;;4935428;29;20231;-77
2023/01/20 10:21:04;;;;;;;27.20;16.00;;;4.60;99.90;;;;;;4950503;28;20235;-78
2023/01/20 10:23:59;;;;;;;30.55;19.80;;;4.60;99.90;;;;;;4960441;28;20228;-78
2023/01/20 10:26:51;;;;;;;29.30;18.65;;;4.70;99.90;;;;;;4965879;28;20262;-78
2023/01/20 10:29:29;;;;;;;32.35;18.98;;;4.70;99.90;;;;;;4972714;28;20220;-78
2023/01/20 10:32:08;;;;;;;29.77;17.30;;;4.60;99.90;;;;;;4937059;28;20270;-78
2023/01/20 10:34:55;;;;;;;29.27;18.25;;;4.60;99.90;;;;;;4942223;29;20228;-78
2023/01/20 10:37:22;;;;;;;31.98;18.00;;;4.60;99.90;;;;;;4967735;28;20231;-77
2023/01/20 10:39:55;;;;;;;27.88;17.08;;;4.60;99.90;;;;;;4972012;28;20255;-78
2023/01/20 10:42:23;;;;;;;26.17;17.98;;;4.60;99.90;;;;;;4971532;28;20239;-76
2023/01/20 10:44:55;;;;;;;34.38;19.55;;;4.70;99.90;;;;;;4968106;28;20236;-78
2023/01/20 10:47:36;;;;;;;32.10;18.75;;;4.70;99.90;;;;;;4958656;28;20254;-79
2023/01/20 10:50:28;;;;;;;27.75;18.30;;;4.70;99.90;;;;;;4957184;28;20248;-76
2023/01/20 10:53:21;;;;;;;29.65;19.90;;;4.80;99.90;;;;;;4963863;28;20289;-81
2023/01/20 10:59:21;;;;;;;29.48;19.10;;;4.80;99.90;;;;;;4952750;28;20231;-78
2023/01/20 11:01:52;;;;;;;31.38;20.35;;;4.80;99.90;;;;;;4946284;28;20224;-82
2023/01/20 11:04:22;;;;;;;29.63;21.17;;;4.90;99.90;;;;;;4979352;28;20655;-81
2023/01/20 11:06:57;;;;;;;35.38;19.38;;;4.90;99.90;;;;;;4965429;28;20224;-81
2023/01/20 11:09:33;;;;;;;38.45;21.13;;;4.90;99.90;;;;;;4960766;28;20224;-78
2023/01/20 11:12:14;;;;;;;33.90;21.10;;;4.90;99.90;;;;;;4937254;29;20258;-80
2023/01/20 11:21:48;;;;;;;31.15;19.90;;;5.00;99.90;;;;;;4962804;28;20242;-80
2023/01/20 11:24:39;;;;;;;31.55;19.08;;;5.00;99.90;;;;;;4956835;28;20259;-78
2023/01/20 11:27:39;;;;;;;28.70;17.95;;;5.00;99.90;;;;;;4960903;28;20255;-81
2023/01/20 11:30:24;;;;;;;32.08;19.90;;;5.00;99.90;;;;;;4946320;29;20642;-79
2023/01/20 11:33:10;;;;;;;29.40;21.33;;;5.00;99.90;;;;;;4944896;28;20253;-77
2023/01/20 11:35:40;;;;;;;33.25;19.23;;;5.00;99.90;;;;;;4942731;28;20229;-77
2023/01/20 11:38:25;;;;;;;30.60;20.23;;;5.00;99.90;;;;;;4932329;28;20227;-77
2023/01/20 11:40:53;;;;;;;35.00;19.60;;;5.00;99.90;;;;;;4935521;28;20306;-77
2023/01/20 11:43:31;;;;;;;27.08;18.27;;;5.00;99.90;;;;;;4935555;28;20287;-77
2023/01/20 11:46:15;;;;;;;37.40;22.23;;;5.00;99.90;;;;;;4934679;28;20236;-79
2023/01/20 11:48:42;;;;;;;31.83;21.33;;;5.00;99.90;;;;;;4935959;28;20319;-78
2023/01/20 11:51:20;;;;;;;33.78;19.60;;;5.10;99.90;;;;;;4936287;28;20229;-79
2023/01/20 11:53:49;;;;;;;24.90;17.85;;;5.10;99.90;;;;;;4937272;28;20228;-79
2023/01/20 11:56:30;;;;;;;30.80;20.10;;;5.10;99.90;;;;;;4939528;28;20299;-77
2023/01/20 11:59:01;;;;;;;30.38;19.52;;;5.10;99.90;;;;;;4936336;28;20359;-79
2023/01/20 12:01:30;;;;;;;32.35;19.27;;;5.10;99.90;;;;;;4935992;28;20244;-77
2023/01/20 12:04:22;;;;;;;30.33;19.73;;;5.10;99.90;;;;;;4936053;28;20225;-78
2023/01/20 12:06:58;;;;;;;29.30;20.23;;;5.10;99.90;;;;;;4935420;28;20228;-80
2023/01/20 12:09:33;;;;;;;29.38;20.67;;;5.10;99.90;;;;;;4935240;28;20240;-78
2023/01/20 12:12:05;;;;;;;34.03;21.80;;;5.10;99.90;;;;;;4934406;28;20239;-77
2023/01/20 12:14:37;;;;;;;29.27;20.17;;;5.10;99.90;;;;;;4934044;28;20212;-78
2023/01/20 12:17:15;;;;;;;27.88;17.65;;;5.10;99.90;;;;;;4991058;28;20686;-80
2023/01/20 12:19:57;;;;;;;33.10;20.50;;;5.20;99.90;;;;;;4943967;28;20603;-77
2023/01/20 12:22:27;;;;;;;29.73;20.92;;;5.20;99.90;;;;;;4944710;28;20231;-77
2023/01/20 12:25:12;;;;;;;28.95;20.75;;;5.20;99.90;;;;;;4944773;28;20221;-77
2023/01/20 12:27:48;;;;;;;24.10;18.10;;;5.20;99.90;;;;;;4928257;28;20689;-78
2023/01/20 12:30:51;;;;;;;27.05;19.73;;;5.20;99.90;;;;;;4946045;28;20640;-78
2023/01/20 12:33:29;;;;;;;25.98;18.23;;;5.20;99.90;;;;;;4941565;28;20216;-78
2023/01/20 12:36:29;;;;;;;25.50;17.83;;;5.20;99.90;;;;;;4941833;28;20221;-79
2023/01/20 12:39:27;;;;;;;27.48;18.30;;;5.20;99.90;;;;;;4954340;28;20285;-77
2023/01/20 12:42:32;;;;;;;29.90;20.77;;;5.20;99.90;;;;;;4950023;28;20583;-77
2023/01/20 12:45:10;;;;;;;30.67;20.58;;;5.20;99.90;;;;;;4934897;29;20639;-80
2023/01/20 12:47:51;;;;;;;26.65;19.05;;;5.20;99.90;;;;;;4953378;28;20293;-81
2023/01/20 12:50:31;;;;;;;31.17;20.20;;;5.20;99.90;;;;;;4947225;28;20227;-79
2023/01/20 12:53:27;;;;;;;29.20;19.23;;;5.20;99.90;;;;;;4940950;28;20220;-78
2023/01/20 12:56:08;;;;;;;33.28;20.92;;;5.20;99.90;;;;;;4932228;28;20244;-81
2023/01/20 12:58:52;;;;;;;44.95;23.10;;;5.20;99.90;;;;;;4950202;28;20225;-81
2023/01/20 13:01:41;;;;;;;32.70;21.08;;;5.20;99.90;;;;;;4941500;28;20224;-79
2023/01/20 13:04:38;;;;;;;27.85;20.95;;;5.20;99.90;;;;;;4933693;29;20228;-79
2023/01/20 13:07:34;;;;;;;29.35;18.13;;;5.20;99.90;;;;;;4934196;28;20225;-78
2023/01/20 13:10:16;;;;;;;31.52;20.83;;;5.20;99.90;;;;;;4933561;29;20240;-81
2023/01/20 13:13:23;;;;;;;31.95;20.13;;;5.20;99.90;;;;;;4935156;28;20244;-81
2023/01/20 13:15:58;;;;;;;27.35;20.90;;;5.20;99.90;;;;;;4936749;28;20223;-79
2023/01/20 13:18:31;;;;;;;32.05;20.60;;;5.20;99.90;;;;;;4934541;28;20290;-82
2023/01/20 13:21:02;;;;;;;38.38;25.13;;;5.20;99.90;;;;;;4933898;29;20705;-80
2023/01/20 13:23:38;;;;;;;37.72;22.58;;;5.20;99.90;;;;;;4932523;29;20274;-81
2023/01/20 13:26:06;;;;;;;35.45;20.98;;;5.20;99.90;;;;;;4927587;29;20224;-79
2023/01/20 13:28:33;;;;;;;27.80;19.35;;;5.20;99.90;;;;;;4933225;29;20423;-80
2023/01/20 13:31:22;;;;;;;31.90;22.52;;;5.30;99.90;;;;;;4931552;28;20243;-79